sensor_id;sensor_type;location;lat;lon;timestamp;P1;durP1;ratioP1;P2;durP2;ratioP2
11588;SDS011;5850;51.360;12.362;2023-12-20T00:02:27;5.80;;;5.13;;
11588;SDS011;5850;51.360;12.362;2023-12-20T00:04:55;6.10;;;4.87;;
11588;SDS011;5850;51.360;12.362;2023-12-20T00:07:23;5.47;;;4.53;;
11588;SDS011;5850;51.360;12.362;2023-12-20T00:09:52;6.20;;;4.93;;
11588;SDS011;5850;51.360;12.362;2023-12-20T00:12:20;5.77;;;4.90;;
11588;SDS011;5850;51.360;12.362;2023-12-20T00:14:48;5.30;;;4.80;;
11588;SDS011;5850;51.360;12.362;2023-12-20T00:17:16;6.93;;;5.10;;
11588;SDS011;5850;51.360;12.362;2023-12-20T00:19:44;4.63;;;4.03;;
11588;SDS011;5850;51.360;12.362;2023-12-20T00:22:13;5.20;;;4.70;;
11588;SDS011;5850;51.360;12.362;2023-12-20T00:24:41;4.23;;;3.60;;
11588;SDS011;5850;51.360;12.362;2023-12-20T00:27:09;4.57;;;4.07;;
11588;SDS011;5850;51.360;12.362;2023-12-20T00:29:38;4.93;;;4.40;;
11588;SDS011;5850;51.360;12.362;2023-12-20T00:32:09;5.90;;;4.00;;
11588;SDS011;5850;51.360;12.362;2023-12-20T00:34:37;4.83;;;4.00;;
11588;SDS011;5850;51.360;12.362;2023-12-20T00:37:05;4.43;;;4.00;;
11588;SDS011;5850;51.360;12.362;2023-12-20T00:39:34;4.30;;;3.47;;
11588;SDS011;5850;51.360;12.362;2023-12-20T00:42:06;4.80;;;4.03;;
11588;SDS011;5850;51.360;12.362;2023-12-20T00:44:34;4.60;;;4.00;;
11588;SDS011;5850;51.360;12.362;2023-12-20T00:47:02;4.27;;;3.67;;
11588;SDS011;5850;51.360;12.362;2023-12-20T00:49:30;3.93;;;3.47;;
11588;SDS011;5850;51.360;12.362;2023-12-20T00:51:59;5.00;;;3.70;;
11588;SDS011;5850;51.360;12.362;2023-12-20T00:54:27;4.17;;;3.30;;
11588;SDS011;5850;51.360;12.362;2023-12-20T00:56:58;3.30;;;3.00;;
11588;SDS011;5850;51.360;12.362;2023-12-20T00:59:31;3.67;;;3.00;;
11588;SDS011;5850;51.360;12.362;2023-12-20T01:01:59;4.10;;;3.20;;
11588;SDS011;5850;51.360;12.362;2023-12-20T01:04:27;3.83;;;3.43;;
11588;SDS011;5850;51.360;12.362;2023-12-20T01:06:56;4.23;;;3.37;;
11588;SDS011;5850;51.360;12.362;2023-12-20T01:09:24;3.27;;;2.97;;
11588;SDS011;5850;51.360;12.362;2023-12-20T01:11:52;4.13;;;3.30;;
11588;SDS011;5850;51.360;12.362;2023-12-20T01:14:21;3.87;;;3.23;;
11588;SDS011;5850;51.360;12.362;2023-12-20T01:16:49;3.20;;;2.90;;
11588;SDS011;5850;51.360;12.362;2023-12-20T01:19:17;3.90;;;3.47;;
11588;SDS011;5850;51.360;12.362;2023-12-20T01:21:47;3.17;;;2.87;;
11588;SDS011;5850;51.360;12.362;2023-12-20T01:24:14;3.30;;;3.00;;
11588;SDS011;5850;51.360;12.362;2023-12-20T01:26:43;3.00;;;2.80;;
11588;SDS011;5850;51.360;12.362;2023-12-20T01:29:12;3.77;;;2.80;;
11588;SDS011;5850;51.360;12.362;2023-12-20T01:31:40;2.90;;;2.60;;
11588;SDS011;5850;51.360;12.362;2023-12-20T01:34:08;2.73;;;2.53;;
11588;SDS011;5850;51.360;12.362;2023-12-20T01:36:37;2.60;;;2.40;;
11588;SDS011;5850;51.360;12.362;2023-12-20T01:39:05;3.53;;;2.67;;
11588;SDS011;5850;51.360;12.362;2023-12-20T01:41:50;2.60;;;2.40;;
11588;SDS011;5850;51.360;12.362;2023-12-20T01:44:18;2.33;;;2.13;;
11588;SDS011;5850;51.360;12.362;2023-12-20T01:46:46;2.40;;;2.20;;
11588;SDS011;5850;51.360;12.362;2023-12-20T01:49:15;4.77;;;3.50;;
11588;SDS011;5850;51.360;12.362;2023-12-20T01:51:44;3.00;;;2.70;;
11588;SDS011;5850;51.360;12.362;2023-12-20T01:54:12;2.53;;;2.33;;
11588;SDS011;5850;51.360;12.362;2023-12-20T01:56:40;2.40;;;2.20;;
11588;SDS011;5850;51.360;12.362;2023-12-20T01:59:08;3.10;;;2.50;;
11588;SDS011;5850;51.360;12.362;2023-12-20T02:01:37;2.50;;;2.30;;
11588;SDS011;5850;51.360;12.362;2023-12-20T02:04:06;2.30;;;2.10;;
11588;SDS011;5850;51.360;12.362;2023-12-20T02:06:34;2.50;;;2.30;;
11588;SDS011;5850;51.360;12.362;2023-12-20T02:09:03;2.70;;;2.43;;
11588;SDS011;5850;51.360;12.362;2023-12-20T02:11:31;2.80;;;2.50;;
11588;SDS011;5850;51.360;12.362;2023-12-20T02:14:01;2.40;;;2.20;;
11588;SDS011;5850;51.360;12.362;2023-12-20T02:16:29;2.50;;;2.30;;
11588;SDS011;5850;51.360;12.362;2023-12-20T02:18:58;2.50;;;2.30;;
11588;SDS011;5850;51.360;12.362;2023-12-20T02:21:32;3.00;;;2.27;;
11588;SDS011;5850;51.360;12.362;2023-12-20T02:24:01;2.30;;;2.10;;
11588;SDS011;5850;51.360;12.362;2023-12-20T02:26:29;2.57;;;2.37;;
11588;SDS011;5850;51.360;12.362;2023-12-20T02:28:59;2.23;;;2.03;;
11588;SDS011;5850;51.360;12.362;2023-12-20T02:31:27;2.57;;;2.30;;
11588;SDS011;5850;51.360;12.362;2023-12-20T02:33:55;2.60;;;2.37;;
11588;SDS011;5850;51.360;12.362;2023-12-20T02:36:24;4.00;;;2.30;;
11588;SDS011;5850;51.360;12.362;2023-12-20T02:38:52;2.33;;;2.13;;
11588;SDS011;5850;51.360;12.362;2023-12-20T02:41:20;2.63;;;2.10;;
11588;SDS011;5850;51.360;12.362;2023-12-20T02:43:48;2.63;;;2.43;;
11588;SDS011;5850;51.360;12.362;2023-12-20T02:46:16;5.00;;;2.63;;
11588;SDS011;5850;51.360;12.362;2023-12-20T02:48:45;2.43;;;2.23;;
11588;SDS011;5850;51.360;12.362;2023-12-20T02:51:14;2.10;;;2.00;;
11588;SDS011;5850;51.360;12.362;2023-12-20T02:53:42;2.50;;;2.30;;
11588;SDS011;5850;51.360;12.362;2023-12-20T02:56:10;2.10;;;2.00;;
11588;SDS011;5850;51.360;12.362;2023-12-20T02:58:40;2.57;;;2.37;;
11588;SDS011;5850;51.360;12.362;2023-12-20T03:01:08;2.40;;;2.20;;
11588;SDS011;5850;51.360;12.362;2023-12-20T03:03:36;2.43;;;2.23;;
11588;SDS011;5850;51.360;12.362;2023-12-20T03:06:04;2.57;;;2.33;;
11588;SDS011;5850;51.360;12.362;2023-12-20T03:08:33;2.60;;;2.40;;
11588;SDS011;5850;51.360;12.362;2023-12-20T03:11:01;2.50;;;2.30;;
11588;SDS011;5850;51.360;12.362;2023-12-20T03:13:29;2.70;;;2.50;;
11588;SDS011;5850;51.360;12.362;2023-12-20T03:15:58;2.40;;;2.20;;
11588;SDS011;5850;51.360;12.362;2023-12-20T03:18:26;3.10;;;2.73;;
11588;SDS011;5850;51.360;12.362;2023-12-20T03:20:55;2.77;;;2.40;;
11588;SDS011;5850;51.360;12.362;2023-12-20T03:23:23;2.67;;;2.47;;
11588;SDS011;5850;51.360;12.362;2023-12-20T03:25:52;2.30;;;2.10;;
11588;SDS011;5850;51.360;12.362;2023-12-20T03:28:20;2.70;;;2.50;;
11588;SDS011;5850;51.360;12.362;2023-12-20T03:30:49;2.83;;;2.60;;
11588;SDS011;5850;51.360;12.362;2023-12-20T03:33:18;2.57;;;2.20;;
11588;SDS011;5850;51.360;12.362;2023-12-20T03:35:46;2.63;;;2.30;;
11588;SDS011;5850;51.360;12.362;2023-12-20T03:38:14;2.63;;;2.43;;
11588;SDS011;5850;51.360;12.362;2023-12-20T03:40:43;2.53;;;2.30;;
11588;SDS011;5850;51.360;12.362;2023-12-20T03:43:11;2.80;;;2.57;;
11588;SDS011;5850;51.360;12.362;2023-12-20T03:45:39;2.63;;;2.43;;
11588;SDS011;5850;51.360;12.362;2023-12-20T03:48:07;2.57;;;2.33;;
11588;SDS011;5850;51.360;12.362;2023-12-20T03:50:36;2.67;;;2.47;;
11588;SDS011;5850;51.360;12.362;2023-12-20T03:53:04;3.33;;;2.80;;
11588;SDS011;5850;51.360;12.362;2023-12-20T03:55:32;3.00;;;2.70;;
11588;SDS011;5850;51.360;12.362;2023-12-20T03:58:00;2.60;;;2.40;;
11588;SDS011;5850;51.360;12.362;2023-12-20T04:00:29;2.83;;;2.63;;
11588;SDS011;5850;51.360;12.362;2023-12-20T04:02:57;4.03;;;3.00;;
11588;SDS011;5850;51.360;12.362;2023-12-20T04:05:25;3.43;;;3.13;;
11588;SDS011;5850;51.360;12.362;2023-12-20T04:07:53;3.50;;;3.20;;
11588;SDS011;5850;51.360;12.362;2023-12-20T04:10:22;3.80;;;3.40;;
11588;SDS011;5850;51.360;12.362;2023-12-20T04:12:50;3.80;;;3.40;;
11588;SDS011;5850;51.360;12.362;2023-12-20T04:15:18;3.60;;;3.30;;
11588;SDS011;5850;51.360;12.362;2023-12-20T04:17:47;4.50;;;4.10;;
11588;SDS011;5850;51.360;12.362;2023-12-20T04:20:16;4.43;;;4.03;;
11588;SDS011;5850;51.360;12.362;2023-12-20T04:22:44;4.43;;;4.00;;
11588;SDS011;5850;51.360;12.362;2023-12-20T04:25:12;5.23;;;3.90;;
11588;SDS011;5850;51.360;12.362;2023-12-20T04:27:40;5.73;;;4.13;;
11588;SDS011;5850;51.360;12.362;2023-12-20T04:30:09;5.07;;;4.57;;
11588;SDS011;5850;51.360;12.362;2023-12-20T04:32:37;5.93;;;4.83;;
11588;SDS011;5850;51.360;12.362;2023-12-20T04:35:06;4.33;;;3.93;;
11588;SDS011;5850;51.360;12.362;2023-12-20T04:37:35;5.63;;;4.13;;
11588;SDS011;5850;51.360;12.362;2023-12-20T04:40:03;4.60;;;4.00;;
11588;SDS011;5850;51.360;12.362;2023-12-20T04:42:42;4.40;;;3.57;;
11588;SDS011;5850;51.360;12.362;2023-12-20T04:45:10;4.87;;;4.03;;
11588;SDS011;5850;51.360;12.362;2023-12-20T04:47:42;5.37;;;3.70;;
11588;SDS011;5850;51.360;12.362;2023-12-20T04:50:14;4.80;;;4.30;;
11588;SDS011;5850;51.360;12.362;2023-12-20T04:52:43;5.00;;;4.50;;
11588;SDS011;5850;51.360;12.362;2023-12-20T04:55:14;4.80;;;4.30;;
11588;SDS011;5850;51.360;12.362;2023-12-20T04:57:43;5.10;;;4.50;;
11588;SDS011;5850;51.360;12.362;2023-12-20T05:00:12;5.30;;;4.77;;
11588;SDS011;5850;51.360;12.362;2023-12-20T05:02:41;5.23;;;4.73;;
11588;SDS011;5850;51.360;12.362;2023-12-20T05:05:09;5.07;;;4.57;;
11588;SDS011;5850;51.360;12.362;2023-12-20T05:07:38;5.40;;;4.90;;
11588;SDS011;5850;51.360;12.362;2023-12-20T05:10:06;5.10;;;4.60;;
11588;SDS011;5850;51.360;12.362;2023-12-20T05:12:35;4.93;;;4.43;;
11588;SDS011;5850;51.360;12.362;2023-12-20T05:15:05;4.60;;;4.20;;
11588;SDS011;5850;51.360;12.362;2023-12-20T05:17:39;4.10;;;3.70;;
11588;SDS011;5850;51.360;12.362;2023-12-20T05:20:07;5.03;;;4.53;;
11588;SDS011;5850;51.360;12.362;2023-12-20T05:22:38;4.93;;;4.40;;
11588;SDS011;5850;51.360;12.362;2023-12-20T05:25:06;4.50;;;4.10;;
11588;SDS011;5850;51.360;12.362;2023-12-20T05:27:34;4.30;;;3.90;;
11588;SDS011;5850;51.360;12.362;2023-12-20T05:30:02;4.30;;;3.90;;
11588;SDS011;5850;51.360;12.362;2023-12-20T05:32:31;5.77;;;4.57;;
11588;SDS011;5850;51.360;12.362;2023-12-20T05:35:01;4.20;;;3.80;;
11588;SDS011;5850;51.360;12.362;2023-12-20T05:37:31;3.97;;;3.53;;
11588;SDS011;5850;51.360;12.362;2023-12-20T05:39:59;3.57;;;3.27;;
11588;SDS011;5850;51.360;12.362;2023-12-20T05:42:27;3.73;;;3.10;;
11588;SDS011;5850;51.360;12.362;2023-12-20T05:44:57;3.87;;;3.57;;
11588;SDS011;5850;51.360;12.362;2023-12-20T05:47:30;4.00;;;3.60;;
11588;SDS011;5850;51.360;12.362;2023-12-20T05:50:03;4.37;;;3.13;;
11588;SDS011;5850;51.360;12.362;2023-12-20T05:52:57;5.20;;;3.67;;
11588;SDS011;5850;51.360;12.362;2023-12-20T05:55:25;4.00;;;3.60;;
11588;SDS011;5850;51.360;12.362;2023-12-20T05:57:53;4.00;;;3.60;;
11588;SDS011;5850;51.360;12.362;2023-12-20T06:00:22;3.30;;;3.00;;
11588;SDS011;5850;51.360;12.362;2023-12-20T06:02:51;3.53;;;3.23;;
11588;SDS011;5850;51.360;12.362;2023-12-20T06:05:21;3.77;;;3.47;;
11588;SDS011;5850;51.360;12.362;2023-12-20T06:07:49;3.60;;;3.30;;
11588;SDS011;5850;51.360;12.362;2023-12-20T06:10:19;3.20;;;2.90;;
11588;SDS011;5850;51.360;12.362;2023-12-20T06:12:48;3.93;;;3.50;;
11588;SDS011;5850;51.360;12.362;2023-12-20T06:15:17;3.93;;;3.50;;
11588;SDS011;5850;51.360;12.362;2023-12-20T06:17:47;3.80;;;3.40;;
11588;SDS011;5850;51.360;12.362;2023-12-20T06:20:18;4.07;;;3.67;;
11588;SDS011;5850;51.360;12.362;2023-12-20T06:22:49;3.57;;;3.27;;
11588;SDS011;5850;51.360;12.362;2023-12-20T06:25:19;4.17;;;3.77;;
11588;SDS011;5850;51.360;12.362;2023-12-20T06:27:47;5.23;;;3.70;;
11588;SDS011;5850;51.360;12.362;2023-12-20T06:30:16;3.93;;;3.53;;
11588;SDS011;5850;51.360;12.362;2023-12-20T06:32:44;3.37;;;3.07;;
11588;SDS011;5850;51.360;12.362;2023-12-20T06:35:13;4.60;;;4.03;;
11588;SDS011;5850;51.360;12.362;2023-12-20T06:37:42;3.93;;;3.57;;
11588;SDS011;5850;51.360;12.362;2023-12-20T06:40:13;5.70;;;4.30;;
11588;SDS011;5850;51.360;12.362;2023-12-20T06:43:05;5.83;;;4.70;;
11588;SDS011;5850;51.360;12.362;2023-12-20T06:45:46;5.33;;;4.83;;
11588;SDS011;5850;51.360;12.362;2023-12-20T06:48:24;5.73;;;4.50;;
11588;SDS011;5850;51.360;12.362;2023-12-20T06:50:52;4.67;;;4.27;;
11588;SDS011;5850;51.360;12.362;2023-12-20T06:53:20;4.37;;;3.90;;
11588;SDS011;5850;51.360;12.362;2023-12-20T06:55:48;3.80;;;3.50;;
11588;SDS011;5850;51.360;12.362;2023-12-20T06:58:16;3.77;;;3.37;;
11588;SDS011;5850;51.360;12.362;2023-12-20T07:00:45;3.73;;;3.37;;
11588;SDS011;5850;51.360;12.362;2023-12-20T07:03:13;4.53;;;3.30;;
11588;SDS011;5850;51.360;12.362;2023-12-20T07:05:41;4.03;;;3.20;;
11588;SDS011;5850;51.360;12.362;2023-12-20T07:08:09;3.60;;;2.93;;
11588;SDS011;5850;51.360;12.362;2023-12-20T07:10:40;4.43;;;3.30;;
11588;SDS011;5850;51.360;12.362;2023-12-20T07:13:08;4.87;;;3.00;;
11588;SDS011;5850;51.360;12.362;2023-12-20T07:15:37;4.07;;;3.10;;
11588;SDS011;5850;51.360;12.362;2023-12-20T07:18:05;3.97;;;2.83;;
11588;SDS011;5850;51.360;12.362;2023-12-20T07:20:35;3.17;;;2.83;;
11588;SDS011;5850;51.360;12.362;2023-12-20T07:23:03;3.03;;;2.60;;
11588;SDS011;5850;51.360;12.362;2023-12-20T07:25:32;4.77;;;2.70;;
11588;SDS011;5850;51.360;12.362;2023-12-20T07:28:00;3.10;;;2.80;;
11588;SDS011;5850;51.360;12.362;2023-12-20T07:30:28;4.10;;;2.80;;
11588;SDS011;5850;51.360;12.362;2023-12-20T07:32:57;2.37;;;2.13;;
11588;SDS011;5850;51.360;12.362;2023-12-20T07:35:27;7.27;;;2.57;;
11588;SDS011;5850;51.360;12.362;2023-12-20T07:37:55;2.60;;;2.03;;
11588;SDS011;5850;51.360;12.362;2023-12-20T07:40:24;3.97;;;2.30;;
11588;SDS011;5850;51.360;12.362;2023-12-20T07:42:54;5.37;;;2.53;;
11588;SDS011;5850;51.360;12.362;2023-12-20T07:45:22;2.80;;;1.90;;
11588;SDS011;5850;51.360;12.362;2023-12-20T07:47:55;4.33;;;2.20;;
11588;SDS011;5850;51.360;12.362;2023-12-20T07:50:25;4.27;;;1.70;;
11588;SDS011;5850;51.360;12.362;2023-12-20T07:52:53;4.30;;;2.50;;
11588;SDS011;5850;51.360;12.362;2023-12-20T07:55:22;2.23;;;2.03;;
11588;SDS011;5850;51.360;12.362;2023-12-20T07:57:51;2.40;;;1.90;;
11588;SDS011;5850;51.360;12.362;2023-12-20T08:00:19;2.83;;;2.07;;
11588;SDS011;5850;51.360;12.362;2023-12-20T08:02:51;2.70;;;2.40;;
11588;SDS011;5850;51.360;12.362;2023-12-20T08:05:19;4.80;;;1.80;;
11588;SDS011;5850;51.360;12.362;2023-12-20T08:07:47;3.13;;;2.20;;
11588;SDS011;5850;51.360;12.362;2023-12-20T08:10:15;2.77;;;2.07;;
11588;SDS011;5850;51.360;12.362;2023-12-20T08:12:46;3.13;;;1.53;;
11588;SDS011;5850;51.360;12.362;2023-12-20T08:15:15;4.33;;;1.73;;
11588;SDS011;5850;51.360;12.362;2023-12-20T08:17:43;3.43;;;2.07;;
11588;SDS011;5850;51.360;12.362;2023-12-20T08:20:11;4.30;;;1.70;;
11588;SDS011;5850;51.360;12.362;2023-12-20T08:22:48;3.37;;;1.60;;
11588;SDS011;5850;51.360;12.362;2023-12-20T08:25:16;2.87;;;1.43;;
11588;SDS011;5850;51.360;12.362;2023-12-20T08:27:44;5.37;;;1.50;;
11588;SDS011;5850;51.360;12.362;2023-12-20T08:30:13;3.50;;;1.80;;
11588;SDS011;5850;51.360;12.362;2023-12-20T08:32:43;4.67;;;2.23;;
11588;SDS011;5850;51.360;12.362;2023-12-20T08:35:11;3.03;;;1.63;;
11588;SDS011;5850;51.360;12.362;2023-12-20T08:37:40;4.40;;;1.90;;
11588;SDS011;5850;51.360;12.362;2023-12-20T08:40:09;5.70;;;1.80;;
11588;SDS011;5850;51.360;12.362;2023-12-20T08:42:38;2.97;;;1.60;;
11588;SDS011;5850;51.360;12.362;2023-12-20T08:45:06;1.90;;;1.50;;
11588;SDS011;5850;51.360;12.362;2023-12-20T08:47:34;3.23;;;1.80;;
11588;SDS011;5850;51.360;12.362;2023-12-20T08:50:03;3.00;;;1.40;;
11588;SDS011;5850;51.360;12.362;2023-12-20T08:52:31;4.67;;;2.10;;
11588;SDS011;5850;51.360;12.362;2023-12-20T08:54:59;3.53;;;2.00;;
11588;SDS011;5850;51.360;12.362;2023-12-20T08:57:28;4.07;;;2.00;;
11588;SDS011;5850;51.360;12.362;2023-12-20T09:00:00;3.97;;;1.67;;
11588;SDS011;5850;51.360;12.362;2023-12-20T09:02:31;6.00;;;2.33;;
11588;SDS011;5850;51.360;12.362;2023-12-20T09:05:02;2.50;;;1.80;;
11588;SDS011;5850;51.360;12.362;2023-12-20T09:07:34;2.77;;;1.80;;
11588;SDS011;5850;51.360;12.362;2023-12-20T09:10:02;2.43;;;1.63;;
11588;SDS011;5850;51.360;12.362;2023-12-20T09:12:31;2.00;;;1.80;;
11588;SDS011;5850;51.360;12.362;2023-12-20T09:14:59;2.77;;;1.73;;
11588;SDS011;5850;51.360;12.362;2023-12-20T09:17:31;4.70;;;2.33;;
11588;SDS011;5850;51.360;12.362;2023-12-20T09:20:00;2.37;;;1.87;;
11588;SDS011;5850;51.360;12.362;2023-12-20T09:22:28;4.23;;;1.77;;
11588;SDS011;5850;51.360;12.362;2023-12-20T09:24:57;4.30;;;2.10;;
11588;SDS011;5850;51.360;12.362;2023-12-20T09:27:25;7.10;;;2.33;;
11588;SDS011;5850;51.360;12.362;2023-12-20T09:29:58;5.00;;;2.13;;
11588;SDS011;5850;51.360;12.362;2023-12-20T09:32:29;1.97;;;1.77;;
11588;SDS011;5850;51.360;12.362;2023-12-20T09:34:57;4.20;;;2.17;;
11588;SDS011;5850;51.360;12.362;2023-12-20T09:37:32;7.60;;;2.17;;
11588;SDS011;5850;51.360;12.362;2023-12-20T09:40:03;7.30;;;2.47;;
11588;SDS011;5850;51.360;12.362;2023-12-20T09:42:36;3.20;;;2.17;;
11588;SDS011;5850;51.360;12.362;2023-12-20T09:45:16;5.83;;;2.27;;
11588;SDS011;5850;51.360;12.362;2023-12-20T09:47:56;2.97;;;1.97;;
11588;SDS011;5850;51.360;12.362;2023-12-20T09:50:32;3.97;;;2.20;;
11588;SDS011;5850;51.360;12.362;2023-12-20T09:53:03;3.80;;;2.20;;
11588;SDS011;5850;51.360;12.362;2023-12-20T09:55:48;4.37;;;2.70;;
11588;SDS011;5850;51.360;12.362;2023-12-20T09:58:35;5.67;;;2.20;;
11588;SDS011;5850;51.360;12.362;2023-12-20T10:01:07;3.50;;;2.40;;
11588;SDS011;5850;51.360;12.362;2023-12-20T10:03:37;4.03;;;2.33;;
11588;SDS011;5850;51.360;12.362;2023-12-20T10:06:23;4.47;;;2.13;;
11588;SDS011;5850;51.360;12.362;2023-12-20T10:09:47;5.77;;;2.43;;
11588;SDS011;5850;51.360;12.362;2023-12-20T10:12:39;3.50;;;2.57;;
11588;SDS011;5850;51.360;12.362;2023-12-20T10:15:51;4.13;;;2.60;;
11588;SDS011;5850;51.360;12.362;2023-12-20T10:18:39;4.20;;;2.73;;
11588;SDS011;5850;51.360;12.362;2023-12-20T10:21:50;6.47;;;2.70;;
11588;SDS011;5850;51.360;12.362;2023-12-20T10:25:07;5.03;;;3.00;;
11588;SDS011;5850;51.360;12.362;2023-12-20T10:28:19;5.13;;;2.73;;
11588;SDS011;5850;51.360;12.362;2023-12-20T10:31:09;6.53;;;2.40;;
11588;SDS011;5850;51.360;12.362;2023-12-20T10:33:50;7.23;;;2.30;;
11588;SDS011;5850;51.360;12.362;2023-12-20T10:36:49;5.37;;;2.43;;
11588;SDS011;5850;51.360;12.362;2023-12-20T10:39:40;5.30;;;2.60;;
11588;SDS011;5850;51.360;12.362;2023-12-20T10:42:56;5.33;;;2.20;;
11588;SDS011;5850;51.360;12.362;2023-12-20T10:46:09;3.63;;;2.10;;
11588;SDS011;5850;51.360;12.362;2023-12-20T10:52:36;5.60;;;2.23;;
11588;SDS011;5850;51.360;12.362;2023-12-20T10:59:15;3.03;;;1.90;;
11588;SDS011;5850;51.360;12.362;2023-12-20T11:02:09;5.83;;;1.70;;
11588;SDS011;5850;51.360;12.362;2023-12-20T11:12:52;4.37;;;2.20;;
11588;SDS011;5850;51.360;12.362;2023-12-20T11:23:50;4.70;;;1.73;;
11588;SDS011;5850;51.360;12.362;2023-12-20T11:29:58;7.60;;;2.20;;
11588;SDS011;5850;51.360;12.362;2023-12-20T11:32:52;4.93;;;1.87;;
11588;SDS011;5850;51.360;12.362;2023-12-20T11:39:47;3.73;;;1.90;;
11588;SDS011;5850;51.360;12.362;2023-12-20T11:46:55;5.07;;;2.30;;
11588;SDS011;5850;51.360;12.362;2023-12-20T11:53:58;2.03;;;1.83;;
11588;SDS011;5850;51.360;12.362;2023-12-20T12:01:50;6.67;;;2.53;;
11588;SDS011;5850;51.360;12.362;2023-12-20T12:05:18;7.33;;;2.10;;
11588;SDS011;5850;51.360;12.362;2023-12-20T12:08:33;5.47;;;2.20;;
11588;SDS011;5850;51.360;12.362;2023-12-20T12:11:28;5.13;;;2.00;;
11588;SDS011;5850;51.360;12.362;2023-12-20T12:14:29;5.30;;;2.00;;
11588;SDS011;5850;51.360;12.362;2023-12-20T12:22:07;1.77;;;1.63;;
11588;SDS011;5850;51.360;12.362;2023-12-20T12:25:37;7.00;;;2.43;;
11588;SDS011;5850;51.360;12.362;2023-12-20T12:32:09;6.60;;;2.00;;
11588;SDS011;5850;51.360;12.362;2023-12-20T12:35:26;6.10;;;1.60;;
11588;SDS011;5850;51.360;12.362;2023-12-20T12:38:27;2.87;;;1.90;;
11588;SDS011;5850;51.360;12.362;2023-12-20T12:41:36;4.87;;;1.90;;
11588;SDS011;5850;51.360;12.362;2023-12-20T12:48:14;4.10;;;2.03;;
11588;SDS011;5850;51.360;12.362;2023-12-20T12:50:48;3.50;;;1.90;;
11588;SDS011;5850;51.360;12.362;2023-12-20T12:53:42;5.63;;;2.17;;
11588;SDS011;5850;51.360;12.362;2023-12-20T13:00:11;3.67;;;2.00;;
11588;SDS011;5850;51.360;12.362;2023-12-20T13:03:21;8.87;;;2.97;;
11588;SDS011;5850;51.360;12.362;2023-12-20T13:06:32;2.37;;;1.90;;
11588;SDS011;5850;51.360;12.362;2023-12-20T13:09:43;3.47;;;2.00;;
11588;SDS011;5850;51.360;12.362;2023-12-20T13:12:11;5.53;;;2.37;;
11588;SDS011;5850;51.360;12.362;2023-12-20T13:14:39;2.63;;;2.00;;
11588;SDS011;5850;51.360;12.362;2023-12-20T13:17:07;3.63;;;2.00;;
11588;SDS011;5850;51.360;12.362;2023-12-20T13:19:35;4.30;;;1.93;;
11588;SDS011;5850;51.360;12.362;2023-12-20T13:22:04;3.57;;;1.90;;
11588;SDS011;5850;51.360;12.362;2023-12-20T13:24:32;2.80;;;1.67;;
11588;SDS011;5850;51.360;12.362;2023-12-20T13:27:01;2.83;;;1.83;;
11588;SDS011;5850;51.360;12.362;2023-12-20T13:29:29;6.33;;;2.30;;
11588;SDS011;5850;51.360;12.362;2023-12-20T13:31:57;5.43;;;1.70;;
11588;SDS011;5850;51.360;12.362;2023-12-20T13:34:25;3.60;;;1.80;;
11588;SDS011;5850;51.360;12.362;2023-12-20T13:36:53;4.90;;;2.00;;
11588;SDS011;5850;51.360;12.362;2023-12-20T13:39:22;3.97;;;2.23;;
11588;SDS011;5850;51.360;12.362;2023-12-20T13:41:51;2.50;;;1.70;;
11588;SDS011;5850;51.360;12.362;2023-12-20T13:44:19;5.20;;;2.20;;
11588;SDS011;5850;51.360;12.362;2023-12-20T13:46:47;3.73;;;1.60;;
11588;SDS011;5850;51.360;12.362;2023-12-20T13:51:51;4.03;;;1.63;;
11588;SDS011;5850;51.360;12.362;2023-12-20T13:54:21;3.77;;;2.10;;
11588;SDS011;5850;51.360;12.362;2023-12-20T13:56:49;2.30;;;1.77;;
11588;SDS011;5850;51.360;12.362;2023-12-20T13:59:34;3.80;;;1.60;;
11588;SDS011;5850;51.360;12.362;2023-12-20T14:02:02;3.03;;;1.60;;
11588;SDS011;5850;51.360;12.362;2023-12-20T14:04:30;4.30;;;2.00;;
11588;SDS011;5850;51.360;12.362;2023-12-20T14:07:08;5.37;;;2.40;;
11588;SDS011;5850;51.360;12.362;2023-12-20T14:09:38;5.80;;;1.80;;
11588;SDS011;5850;51.360;12.362;2023-12-20T14:12:12;2.77;;;1.67;;
11588;SDS011;5850;51.360;12.362;2023-12-20T14:14:41;3.57;;;1.70;;
11588;SDS011;5850;51.360;12.362;2023-12-20T14:17:09;7.20;;;1.87;;
11588;SDS011;5850;51.360;12.362;2023-12-20T14:19:37;3.70;;;1.60;;
11588;SDS011;5850;51.360;12.362;2023-12-20T14:22:06;2.30;;;1.40;;
11588;SDS011;5850;51.360;12.362;2023-12-20T14:24:35;3.93;;;2.00;;
11588;SDS011;5850;51.360;12.362;2023-12-20T14:27:03;3.33;;;1.60;;
11588;SDS011;5850;51.360;12.362;2023-12-20T14:29:31;2.30;;;1.57;;
11588;SDS011;5850;51.360;12.362;2023-12-20T14:31:59;7.63;;;1.83;;
11588;SDS011;5850;51.360;12.362;2023-12-20T14:34:29;4.10;;;1.50;;
11588;SDS011;5850;51.360;12.362;2023-12-20T14:36:58;2.10;;;1.43;;
11588;SDS011;5850;51.360;12.362;2023-12-20T14:39:25;2.50;;;1.60;;
11588;SDS011;5850;51.360;12.362;2023-12-20T14:41:53;1.80;;;1.70;;
11588;SDS011;5850;51.360;12.362;2023-12-20T14:44:21;1.60;;;1.43;;
11588;SDS011;5850;51.360;12.362;2023-12-20T14:46:50;2.90;;;1.40;;
11588;SDS011;5850;51.360;12.362;2023-12-20T14:49:18;3.40;;;1.40;;
11588;SDS011;5850;51.360;12.362;2023-12-20T14:51:46;2.57;;;1.40;;
11588;SDS011;5850;51.360;12.362;2023-12-20T14:54:14;2.13;;;1.70;;
11588;SDS011;5850;51.360;12.362;2023-12-20T14:56:42;3.37;;;1.40;;
11588;SDS011;5850;51.360;12.362;2023-12-20T14:59:12;3.50;;;1.67;;
11588;SDS011;5850;51.360;12.362;2023-12-20T15:01:41;2.43;;;1.47;;
11588;SDS011;5850;51.360;12.362;2023-12-20T15:04:10;2.50;;;1.50;;
11588;SDS011;5850;51.360;12.362;2023-12-20T15:06:39;3.00;;;2.27;;
11588;SDS011;5850;51.360;12.362;2023-12-20T15:09:07;2.57;;;1.53;;
11588;SDS011;5850;51.360;12.362;2023-12-20T15:11:35;2.90;;;1.53;;
11588;SDS011;5850;51.360;12.362;2023-12-20T15:14:03;1.90;;;1.30;;
11588;SDS011;5850;51.360;12.362;2023-12-20T15:16:32;3.33;;;1.83;;
11588;SDS011;5850;51.360;12.362;2023-12-20T15:19:01;2.43;;;1.17;;
11588;SDS011;5850;51.360;12.362;2023-12-20T15:21:29;3.73;;;1.60;;
11588;SDS011;5850;51.360;12.362;2023-12-20T15:24:00;1.53;;;1.40;;
11588;SDS011;5850;51.360;12.362;2023-12-20T15:26:39;5.60;;;2.10;;
11588;SDS011;5850;51.360;12.362;2023-12-20T15:29:07;2.83;;;1.50;;
11588;SDS011;5850;51.360;12.362;2023-12-20T15:31:37;3.43;;;1.63;;
11588;SDS011;5850;51.360;12.362;2023-12-20T15:34:09;3.03;;;1.47;;
11588;SDS011;5850;51.360;12.362;2023-12-20T15:36:37;5.27;;;2.20;;
11588;SDS011;5850;51.360;12.362;2023-12-20T15:39:06;2.90;;;1.47;;
11588;SDS011;5850;51.360;12.362;2023-12-20T15:41:35;2.73;;;1.50;;
11588;SDS011;5850;51.360;12.362;2023-12-20T15:44:03;2.70;;;1.70;;
11588;SDS011;5850;51.360;12.362;2023-12-20T15:46:31;2.50;;;1.60;;
11588;SDS011;5850;51.360;12.362;2023-12-20T15:49:00;1.83;;;1.40;;
11588;SDS011;5850;51.360;12.362;2023-12-20T15:51:28;3.13;;;2.30;;
11588;SDS011;5850;51.360;12.362;2023-12-20T15:53:56;2.87;;;1.70;;
11588;SDS011;5850;51.360;12.362;2023-12-20T15:56:29;2.73;;;2.10;;
11588;SDS011;5850;51.360;12.362;2023-12-20T15:58:57;3.70;;;1.70;;
11588;SDS011;5850;51.360;12.362;2023-12-20T16:01:26;3.33;;;2.07;;
11588;SDS011;5850;51.360;12.362;2023-12-20T16:03:54;3.93;;;1.80;;
11588;SDS011;5850;51.360;12.362;2023-12-20T16:06:25;5.90;;;1.93;;
11588;SDS011;5850;51.360;12.362;2023-12-20T16:08:54;3.23;;;1.60;;
11588;SDS011;5850;51.360;12.362;2023-12-20T16:11:26;2.83;;;1.83;;
11588;SDS011;5850;51.360;12.362;2023-12-20T16:13:55;3.67;;;1.73;;
11588;SDS011;5850;51.360;12.362;2023-12-20T16:16:23;2.67;;;1.53;;
11588;SDS011;5850;51.360;12.362;2023-12-20T16:18:51;3.80;;;1.63;;
11588;SDS011;5850;51.360;12.362;2023-12-20T16:21:20;3.90;;;1.83;;
11588;SDS011;5850;51.360;12.362;2023-12-20T16:23:48;2.73;;;1.80;;
11588;SDS011;5850;51.360;12.362;2023-12-20T16:26:16;3.73;;;1.93;;